createdAt,value
2022-11-21T00:00:57.995Z,3.07
2022-11-21T00:03:24.847Z,3.42
2022-11-21T00:05:51.679Z,3.30
2022-11-21T00:08:21.181Z,2.38
2022-11-21T00:10:48.624Z,2.38
2022-11-21T00:13:20.826Z,2.85
2022-11-21T00:15:48.084Z,3.30
2022-11-21T00:18:15.259Z,3.97
2022-11-21T00:20:43.454Z,3.45
2022-11-21T00:23:11.078Z,2.72
2022-11-21T00:25:38.989Z,3.40
2022-11-21T00:28:05.834Z,2.63
2022-11-21T00:30:32.700Z,3.50
2022-11-21T00:32:59.701Z,3.67
2022-11-21T00:35:26.823Z,3.22
2022-11-21T00:37:53.520Z,3.45
2022-11-21T00:40:20.273Z,5.30
2022-11-21T00:42:47.019Z,4.05
2022-11-21T00:45:13.827Z,2.60
2022-11-21T00:47:40.507Z,5.25
2022-11-21T00:50:07.448Z,3.70
2022-11-21T00:52:34.214Z,3.75
2022-11-21T00:55:00.955Z,2.80
2022-11-21T00:57:27.669Z,3.67
2022-11-21T00:59:54.409Z,3.45
2022-11-21T01:02:21.265Z,3.10
2022-11-21T01:04:48.001Z,3.40
2022-11-21T01:07:15.352Z,3.20
2022-11-21T01:09:42.110Z,5.40
2022-11-21T01:12:08.813Z,2.92
2022-11-21T01:14:35.574Z,4.10
2022-11-21T01:17:02.274Z,3.30
2022-11-21T01:19:29.019Z,3.63
2022-11-21T01:21:55.723Z,2.60
2022-11-21T01:24:22.380Z,2.58
2022-11-21T01:26:51.132Z,3.05
2022-11-21T01:29:18.070Z,4.13
2022-11-21T01:31:44.762Z,5.00
2022-11-21T01:34:11.725Z,4.13
2022-11-21T01:36:38.432Z,2.75
2022-11-21T01:39:07.222Z,3.50
2022-11-21T01:41:36.202Z,3.45
2022-11-21T01:44:07.199Z,3.17
2022-11-21T01:46:33.951Z,3.25
2022-11-21T01:49:05.073Z,2.83
2022-11-21T01:51:38.122Z,3.85
2022-11-21T01:54:28.175Z,4.72
2022-11-21T01:57:04.798Z,4.93
2022-11-21T01:59:37.650Z,5.40
2022-11-21T02:02:07.522Z,4.13
2022-11-21T02:04:36.481Z,3.22
2022-11-21T02:07:06.543Z,3.65
2022-11-21T02:09:36.101Z,3.47
2022-11-21T02:12:08.216Z,3.28
2022-11-21T02:14:36.318Z,3.60
2022-11-21T02:17:06.962Z,5.22
2022-11-21T02:19:57.161Z,3.35
2022-11-21T02:22:40.914Z,3.97
2022-11-21T02:25:10.181Z,3.67
2022-11-21T02:27:36.935Z,2.97
2022-11-21T02:30:06.590Z,3.25
2022-11-21T02:32:37.370Z,2.90
2022-11-21T02:35:04.758Z,1.92
2022-11-21T02:37:33.649Z,2.80
2022-11-21T02:40:03.393Z,2.55
2022-11-21T02:42:36.817Z,2.05
2022-11-21T02:45:09.291Z,2.38
2022-11-21T02:47:38.806Z,2.13
2022-11-21T02:50:25.688Z,2.88
2022-11-21T02:52:52.404Z,2.35
2022-11-21T02:55:19.212Z,2.90
2022-11-21T02:57:46.000Z,3.97
2022-11-21T03:02:40.134Z,3.17
2022-11-21T03:05:09.273Z,3.08
2022-11-21T03:07:36.096Z,4.05
2022-11-21T03:10:03.069Z,5.03
2022-11-21T03:12:30.322Z,6.85
2022-11-21T03:14:58.454Z,3.58
2022-11-21T03:17:25.193Z,4.38
2022-11-21T03:19:51.917Z,3.05
2022-11-21T03:22:18.690Z,3.10
2022-11-21T03:24:45.446Z,3.63
2022-11-21T03:27:12.166Z,2.95
2022-11-21T03:29:38.910Z,4.72
2022-11-21T03:32:05.794Z,3.60
2022-11-21T03:34:32.913Z,3.75
2022-11-21T03:36:59.686Z,4.35
2022-11-21T03:39:26.391Z,4.55
2022-11-21T03:41:53.106Z,5.25
2022-11-21T03:44:19.781Z,5.00
2022-11-21T03:46:49.755Z,4.95
2022-11-21T03:49:16.928Z,5.32
2022-11-21T03:51:44.865Z,5.38
2022-11-21T03:54:12.133Z,4.85
2022-11-21T03:56:41.829Z,8.27
2022-11-21T03:59:08.571Z,8.88
2022-11-21T04:01:36.801Z,5.40
2022-11-21T04:04:05.572Z,3.65
2022-11-21T04:06:32.601Z,4.88
2022-11-21T04:08:59.351Z,5.03
2022-11-21T04:11:26.181Z,5.80
2022-11-21T04:13:53.203Z,5.03
2022-11-21T04:16:20.161Z,5.22
2022-11-21T04:18:47.019Z,4.93
2022-11-21T04:21:13.763Z,6.43
2022-11-21T04:23:40.443Z,7.43
2022-11-21T04:26:07.181Z,6.35
2022-11-21T04:28:34.079Z,5.93
2022-11-21T04:31:10.025Z,6.20
2022-11-21T04:33:37.486Z,4.55
2022-11-21T04:36:05.377Z,5.47
2022-11-21T04:38:32.106Z,4.82
2022-11-21T04:40:58.850Z,4.93
2022-11-21T04:43:25.635Z,4.63
2022-11-21T04:45:52.445Z,4.93
2022-11-21T04:48:19.286Z,6.13
2022-11-21T04:50:46.756Z,3.80
2022-11-21T04:53:14.836Z,5.65
2022-11-21T04:59:32.100Z,5.97
2022-11-21T05:02:03.569Z,4.82
2022-11-21T05:04:37.367Z,5.15
2022-11-21T05:11:25.405Z,5.15
2022-11-21T05:14:51.353Z,5.45
2022-11-21T05:17:27.197Z,4.00
2022-11-21T05:19:55.979Z,3.15
2022-11-21T05:22:22.710Z,3.55
2022-11-21T05:24:50.281Z,2.75
2022-11-21T05:27:16.986Z,3.17
2022-11-21T05:29:44.792Z,2.55
2022-11-21T05:32:11.483Z,5.85
2022-11-21T05:34:38.176Z,2.58
2022-11-21T05:37:05.729Z,2.92
2022-11-21T05:39:32.448Z,3.55
2022-11-21T05:42:02.979Z,4.25
2022-11-21T05:44:30.563Z,4.65
2022-11-21T05:46:57.647Z,4.50
2022-11-21T05:49:24.421Z,4.15
2022-11-21T05:51:51.122Z,4.55
2022-11-21T05:54:17.922Z,5.07
2022-11-21T05:56:44.612Z,4.80
2022-11-21T05:59:12.078Z,5.60
2022-11-21T06:01:57.534Z,5.97
2022-11-21T06:04:24.351Z,4.63
2022-11-21T06:06:51.062Z,4.88
2022-11-21T06:09:17.777Z,3.90
2022-11-21T06:11:44.573Z,4.63
2022-11-21T06:14:11.244Z,4.80
2022-11-21T06:16:37.974Z,3.08
2022-11-21T06:19:04.767Z,3.08
2022-11-21T06:21:34.255Z,4.07
2022-11-21T06:24:00.977Z,4.35
2022-11-21T06:26:28.298Z,5.80
2022-11-21T06:28:55.798Z,3.78
2022-11-21T06:31:25.444Z,4.78
2022-11-21T06:33:56.847Z,4.28
2022-11-21T06:36:24.078Z,5.30
2022-11-21T06:38:53.034Z,2.45
2022-11-21T06:41:22.542Z,3.00
2022-11-21T06:43:49.431Z,2.67
2022-11-21T06:46:16.827Z,3.17
2022-11-21T06:48:44.166Z,2.92
2022-11-21T06:51:24.722Z,2.92
2022-11-21T06:53:56.198Z,5.80
2022-11-21T06:56:24.401Z,4.03
2022-11-21T06:58:51.170Z,3.92
2022-11-21T07:01:18.380Z,3.92
2022-11-21T07:03:45.662Z,2.88
2022-11-21T07:06:12.521Z,2.78
2022-11-21T07:08:41.212Z,2.72
2022-11-21T07:11:24.681Z,2.20
2022-11-21T07:13:51.872Z,2.17
2022-11-21T07:16:18.601Z,3.20
2022-11-21T07:18:45.629Z,3.17
2022-11-21T07:21:12.361Z,2.63
2022-11-21T07:23:39.455Z,2.97
2022-11-21T07:26:08.591Z,3.05
2022-11-21T07:28:35.484Z,4.43
2022-11-21T07:31:08.526Z,4.00
2022-11-21T07:33:38.570Z,4.78
2022-11-21T07:36:05.689Z,2.88
2022-11-21T07:38:32.412Z,2.85
2022-11-21T07:40:59.139Z,3.97
2022-11-21T07:43:25.848Z,3.92
2022-11-21T07:45:52.556Z,4.60
2022-11-21T07:48:19.328Z,4.43
2022-11-21T07:50:46.053Z,3.63
2022-11-21T07:53:13.273Z,2.33
2022-11-21T07:55:40.942Z,2.47
2022-11-21T07:58:10.989Z,2.63
2022-11-21T08:00:40.350Z,3.00
2022-11-21T08:03:07.380Z,3.25
2022-11-21T08:05:38.088Z,4.47
2022-11-21T08:08:06.260Z,4.05
2022-11-21T08:10:33.669Z,4.03
2022-11-21T08:13:00.547Z,4.05
2022-11-21T08:15:27.281Z,2.78
2022-11-21T08:17:53.957Z,3.88
2022-11-21T08:20:20.768Z,6.13
2022-11-21T08:22:47.517Z,4.03
2022-11-21T08:25:15.536Z,3.15
2022-11-21T08:27:42.504Z,3.47
2022-11-21T08:30:11.648Z,3.80
2022-11-21T08:32:38.450Z,3.92
2022-11-21T08:35:08.277Z,4.65
2022-11-21T08:37:35.031Z,3.22
2022-11-21T08:40:02.495Z,2.88
2022-11-21T08:42:29.242Z,4.03
2022-11-21T08:44:56.115Z,3.50
2022-11-21T08:47:22.891Z,5.85
2022-11-21T08:49:49.983Z,4.03
2022-11-21T08:52:17.568Z,3.53
2022-11-21T08:54:45.586Z,3.85
2022-11-21T08:57:12.711Z,4.95
2022-11-21T08:59:39.732Z,5.00
2022-11-21T09:02:06.944Z,5.72
2022-11-21T09:04:33.813Z,3.90
2022-11-21T09:07:02.074Z,4.50
2022-11-21T09:09:28.969Z,5.50
2022-11-21T09:11:55.752Z,4.57
2022-11-21T09:14:41.269Z,4.50
2022-11-21T09:17:31.939Z,4.97
2022-11-21T09:19:59.070Z,3.88
2022-11-21T09:22:28.495Z,5.65
2022-11-21T09:24:56.241Z,3.13
2022-11-21T09:27:22.921Z,3.55
2022-11-21T09:29:54.122Z,3.65
2022-11-21T09:32:22.331Z,5.07
2022-11-21T09:34:49.158Z,3.67
2022-11-21T09:37:15.931Z,3.50
2022-11-21T09:39:42.645Z,2.75
2022-11-21T09:42:24.340Z,4.20
2022-11-21T09:45:04.957Z,4.55
2022-11-21T09:47:46.173Z,3.83
2022-11-21T09:50:12.853Z,6.25
2022-11-21T09:53:12.812Z,4.70
2022-11-21T09:55:43.085Z,4.65
2022-11-21T09:58:32.713Z,3.63
2022-11-21T10:00:59.890Z,3.88
2022-11-21T10:03:30.963Z,5.53
2022-11-21T10:06:29.428Z,3.80
2022-11-21T10:09:01.821Z,2.67
2022-11-21T10:12:13.447Z,1.75
2022-11-21T10:14:58.530Z,1.30
2022-11-21T10:17:38.974Z,1.45
2022-11-21T10:20:34.858Z,0.50
2022-11-21T10:23:27.540Z,0.40
2022-11-21T10:29:15.733Z,0.80
2022-11-21T10:31:43.321Z,0.40
2022-11-21T10:34:19.124Z,0.40
2022-11-21T10:36:51.611Z,0.73
2022-11-21T10:39:32.815Z,1.10
2022-11-21T10:42:18.105Z,2.10
2022-11-21T10:45:07.474Z,1.42
2022-11-21T10:47:37.871Z,1.77
2022-11-21T10:50:10.742Z,1.80
2022-11-21T10:52:51.115Z,1.90
2022-11-21T10:55:18.659Z,0.90
2022-11-21T10:57:54.360Z,0.90
2022-11-21T11:00:25.672Z,1.00
2022-11-21T11:02:55.467Z,0.95
2022-11-21T11:05:27.307Z,1.20
2022-11-21T11:08:14.919Z,1.08
2022-11-21T11:11:01.833Z,1.00
2022-11-21T11:13:46.891Z,1.13
2022-11-21T11:16:22.375Z,0.93
2022-11-21T11:18:58.672Z,0.88
2022-11-21T11:21:31.251Z,1.05
2022-11-21T11:24:28.309Z,1.08
2022-11-21T11:27:02.685Z,0.65
2022-11-21T11:29:32.354Z,1.45
2022-11-21T11:31:59.181Z,1.48
2022-11-21T11:34:38.898Z,0.93
2022-11-21T11:37:11.868Z,0.75
2022-11-21T11:40:06.192Z,0.52
2022-11-21T11:43:27.064Z,0.70
2022-11-21T11:46:34.504Z,0.60
2022-11-21T11:49:24.870Z,1.00
2022-11-21T11:52:04.228Z,0.88
2022-11-21T11:54:47.669Z,0.95
2022-11-21T11:57:17.478Z,1.65
2022-11-21T11:59:58.759Z,1.00
2022-11-21T12:02:52.082Z,0.82
2022-11-21T12:05:26.245Z,1.58
2022-11-21T12:11:29.060Z,1.00
2022-11-21T12:13:57.523Z,0.82
2022-11-21T12:16:27.920Z,0.98
2022-11-21T12:19:09.119Z,1.42
2022-11-21T12:21:35.852Z,0.73
2022-11-21T12:24:05.209Z,1.17
2022-11-21T12:26:44.085Z,1.10
2022-11-21T12:29:41.198Z,1.13
2022-11-21T12:32:26.870Z,1.05
2022-11-21T12:35:09.925Z,1.50
2022-11-21T12:38:07.927Z,2.03
2022-11-21T12:40:56.397Z,1.98
2022-11-21T12:43:53.091Z,1.55
2022-11-21T12:46:32.098Z,2.00
2022-11-21T12:49:53.203Z,1.52
2022-11-21T12:52:53.162Z,1.75
2022-11-21T12:55:24.340Z,2.83
2022-11-21T12:58:06.188Z,1.80
2022-11-21T13:01:15.460Z,2.42
2022-11-21T13:03:50.379Z,1.50
2022-11-21T13:06:23.807Z,1.65
2022-11-21T13:08:53.012Z,1.55
2022-11-21T13:11:58.704Z,2.10
2022-11-21T13:14:29.461Z,1.92
2022-11-21T13:17:09.870Z,3.38
2022-11-21T13:19:51.457Z,2.03
2022-11-21T13:22:36.632Z,2.60
2022-11-21T13:25:11.604Z,2.65
2022-11-21T13:27:40.622Z,3.15
2022-11-21T13:30:07.269Z,2.55
2022-11-21T13:32:40.488Z,3.83
2022-11-21T13:35:22.005Z,2.50
2022-11-21T13:38:07.162Z,2.30
2022-11-21T13:40:33.812Z,3.50
2022-11-21T13:45:59.633Z,4.55
2022-11-21T13:48:32.079Z,3.22
2022-11-21T13:51:32.895Z,2.15
2022-11-21T13:54:18.136Z,2.90
2022-11-21T13:57:00.084Z,2.00
2022-11-21T14:00:08.129Z,2.78
2022-11-21T14:03:05.760Z,3.42
2022-11-21T14:05:48.024Z,2.90
2022-11-21T14:08:18.340Z,2.42
2022-11-21T14:10:47.048Z,2.88
2022-11-21T14:13:28.325Z,3.20
2022-11-21T14:16:07.072Z,2.72
2022-11-21T14:18:35.986Z,2.35
2022-11-21T14:21:04.779Z,1.35
2022-11-21T14:23:33.510Z,2.03
2022-11-21T14:26:04.845Z,2.20
2022-11-21T14:31:04.274Z,2.25
2022-11-21T14:33:38.006Z,1.98
2022-11-21T14:36:13.811Z,1.50
2022-11-21T14:38:45.385Z,1.63
2022-11-21T14:41:26.114Z,1.75
2022-11-21T14:43:58.921Z,2.40
2022-11-21T14:46:28.008Z,2.00
2022-11-21T14:48:57.315Z,1.42
2022-11-21T14:51:25.738Z,2.78
2022-11-21T14:53:53.757Z,1.70
2022-11-21T14:56:30.036Z,2.05
2022-11-21T14:58:59.313Z,1.45
2022-11-21T15:01:29.865Z,1.42
2022-11-21T15:03:57.789Z,1.75
2022-11-21T15:06:26.589Z,1.77
2022-11-21T15:10:11.514Z,1.75
2022-11-21T15:11:58.818Z,1.60
2022-11-21T15:14:55.008Z,1.58
2022-11-21T15:17:24.509Z,2.15
2022-11-21T15:20:23.566Z,1.77
2022-11-21T15:22:54.794Z,1.45
2022-11-21T15:25:25.653Z,1.85
2022-11-21T15:28:09.176Z,2.00
2022-11-21T15:30:38.192Z,1.95
2022-11-21T15:33:10.825Z,1.92
2022-11-21T15:35:40.733Z,1.88
2022-11-21T15:38:19.188Z,1.90
2022-11-21T15:41:25.511Z,2.22
2022-11-21T15:43:55.066Z,1.25
2022-11-21T15:46:30.889Z,1.92
2022-11-21T15:49:03.551Z,1.70
2022-11-21T15:52:06.000Z,2.30
2022-11-21T15:54:29.924Z,1.90
2022-11-21T15:56:56.754Z,2.20
2022-11-21T15:59:23.497Z,2.40
2022-11-21T16:01:50.368Z,2.30
2022-11-21T16:04:37.033Z,2.47
2022-11-21T16:07:03.909Z,3.47
2022-11-21T16:09:31.050Z,2.95
2022-11-21T16:11:57.902Z,4.57
2022-11-21T16:14:24.692Z,2.58
2022-11-21T16:16:51.368Z,2.55
2022-11-21T16:19:18.052Z,2.78
2022-11-21T16:21:44.854Z,2.42
2022-11-21T16:24:11.638Z,2.53
2022-11-21T16:26:38.380Z,2.67
2022-11-21T16:29:05.865Z,2.53
2022-11-21T16:31:33.339Z,2.50
2022-11-21T16:34:00.855Z,3.63
2022-11-21T16:36:29.911Z,3.47
2022-11-21T16:39:01.819Z,3.53
2022-11-21T16:41:30.695Z,3.22
2022-11-21T16:43:57.543Z,3.63
2022-11-21T16:46:24.954Z,2.47
2022-11-21T16:49:00.674Z,4.43
2022-11-21T16:51:28.369Z,4.45
2022-11-21T16:53:57.318Z,3.38
2022-11-21T16:56:24.809Z,3.78
2022-11-21T16:58:51.590Z,2.40
2022-11-21T17:01:20.701Z,3.45
2022-11-21T17:03:48.937Z,3.97
2022-11-21T17:06:23.972Z,4.25
2022-11-21T17:08:51.007Z,5.03
2022-11-21T17:11:22.074Z,3.80
2022-11-21T17:13:51.282Z,4.97
2022-11-21T17:16:21.722Z,5.40
2022-11-21T17:18:52.294Z,5.28
2022-11-21T17:21:19.023Z,4.78
2022-11-21T17:23:46.174Z,4.05
2022-11-21T17:26:15.299Z,4.47
2022-11-21T17:28:45.864Z,4.68
2022-11-21T17:31:15.245Z,4.18
2022-11-21T17:33:43.809Z,4.53
2022-11-21T17:36:12.710Z,5.07
2022-11-21T17:38:40.163Z,4.25
2022-11-21T17:41:10.011Z,4.65
2022-11-21T17:43:36.913Z,4.40
2022-11-21T17:46:10.470Z,5.10
2022-11-21T17:48:38.262Z,6.07
2022-11-21T17:51:06.547Z,5.45
2022-11-21T17:53:35.350Z,5.28
2022-11-21T17:56:03.652Z,6.82
2022-11-21T17:58:31.121Z,7.38
2022-11-21T18:00:59.953Z,6.68
2022-11-21T18:03:27.795Z,6.88
2022-11-21T18:06:06.639Z,6.32
2022-11-21T18:08:35.586Z,7.18
2022-11-21T18:11:03.217Z,8.05
2022-11-21T18:13:31.179Z,7.28
2022-11-21T18:16:02.855Z,6.13
2022-11-21T18:18:29.610Z,5.00
2022-11-21T18:21:08.946Z,4.70
2022-11-21T18:23:36.604Z,4.20
2022-11-21T18:26:06.189Z,3.80
2022-11-21T18:28:33.430Z,4.47
2022-11-21T18:31:15.234Z,4.70
2022-11-21T18:33:43.011Z,4.90
2022-11-21T18:36:11.373Z,4.30
2022-11-21T18:38:51.218Z,5.47
2022-11-21T18:41:26.865Z,5.88
2022-11-21T18:43:59.226Z,5.60
2022-11-21T18:49:04.765Z,5.97
2022-11-21T18:51:32.930Z,6.03
2022-11-21T18:54:05.288Z,5.03
2022-11-21T18:58:59.353Z,5.45
2022-11-21T19:01:28.999Z,6.03
2022-11-21T19:03:56.411Z,6.95
2022-11-21T19:06:24.789Z,4.97
2022-11-21T19:08:55.944Z,4.82
2022-11-21T19:11:27.173Z,4.90
2022-11-21T19:13:55.434Z,5.45
2022-11-21T19:16:25.025Z,3.63
2022-11-21T19:21:42.307Z,3.80
2022-11-21T19:24:14.265Z,4.10
2022-11-21T19:26:41.968Z,4.07
2022-11-21T19:29:09.328Z,3.92
2022-11-21T19:31:41.015Z,4.45
2022-11-21T19:34:11.419Z,4.30
2022-11-21T19:36:39.542Z,4.28
2022-11-21T19:39:06.459Z,4.57
2022-11-21T19:41:33.264Z,4.57
2022-11-21T19:44:01.404Z,3.65
2022-11-21T19:46:38.041Z,4.82
2022-11-21T19:49:06.377Z,3.40
2022-11-21T19:51:36.691Z,2.88
2022-11-21T19:54:06.053Z,3.53
2022-11-21T19:56:35.687Z,3.45
2022-11-21T19:59:02.438Z,4.38
2022-11-21T20:01:31.152Z,6.10
2022-11-21T20:04:00.141Z,7.20
2022-11-21T20:06:29.083Z,5.20
2022-11-21T20:08:58.017Z,5.25
2022-11-21T20:11:25.766Z,5.20
2022-11-21T20:13:52.490Z,5.22
2022-11-21T20:16:22.074Z,4.38
2022-11-21T20:18:49.784Z,5.00
2022-11-21T20:21:17.528Z,4.72
2022-11-21T20:23:46.208Z,4.93
2022-11-21T20:26:14.197Z,4.63
2022-11-21T20:28:41.010Z,6.80
2022-11-21T20:31:11.941Z,4.45
2022-11-21T20:33:45.942Z,5.38
2022-11-21T20:36:16.983Z,5.47
2022-11-21T20:38:51.669Z,5.30
2022-11-21T20:41:19.571Z,6.53
2022-11-21T20:44:41.687Z,5.90
2022-11-21T20:46:35.812Z,5.18
2022-11-21T20:49:02.681Z,5.10
2022-11-21T20:54:16.104Z,4.75
2022-11-21T20:56:44.542Z,5.13
2022-11-21T20:59:11.412Z,4.22
2022-11-21T21:01:38.312Z,5.30
2022-11-21T21:04:05.280Z,4.65
2022-11-21T21:06:32.141Z,4.50
2022-11-21T21:08:58.866Z,3.97
2022-11-21T21:14:12.316Z,5.35
2022-11-21T21:16:41.163Z,7.05
2022-11-21T21:19:07.874Z,4.88
2022-11-21T21:21:34.705Z,4.00
2022-11-21T21:24:06.459Z,4.18
2022-11-21T21:26:41.800Z,4.75
2022-11-21T21:29:11.383Z,4.97
2022-11-21T21:31:40.202Z,4.20
2022-11-21T21:34:09.939Z,4.30
2022-11-21T21:36:37.108Z,4.90
2022-11-21T21:39:04.170Z,4.43
2022-11-21T21:41:31.774Z,5.25
2022-11-21T21:43:58.947Z,3.92
2022-11-21T21:46:27.616Z,4.63
2022-11-21T21:49:14.367Z,3.10
2022-11-21T21:51:41.478Z,2.45
2022-11-21T21:54:17.603Z,3.38
2022-11-21T21:56:46.786Z,2.72
2022-11-21T21:59:15.081Z,3.50
2022-11-21T22:01:43.000Z,3.13
2022-11-21T22:04:11.380Z,3.22
2022-11-21T22:06:38.383Z,3.13
2022-11-21T22:09:05.179Z,3.20
2022-11-21T22:11:37.917Z,2.97
2022-11-21T22:14:10.560Z,4.95
2022-11-21T22:16:37.478Z,3.63
2022-11-21T22:19:04.947Z,3.13
2022-11-21T22:21:34.750Z,3.58
2022-11-21T22:24:27.306Z,4.90
2022-11-21T22:26:54.994Z,4.82
2022-11-21T22:29:21.918Z,2.92
2022-11-21T22:31:48.811Z,3.50
2022-11-21T22:34:15.801Z,3.90
2022-11-21T22:36:43.028Z,4.03
2022-11-21T22:39:09.839Z,2.83
2022-11-21T22:41:36.686Z,3.95
2022-11-21T22:44:03.463Z,3.90
2022-11-21T22:46:31.552Z,4.38
2022-11-21T22:49:00.661Z,5.05
2022-11-21T22:51:31.916Z,5.43
2022-11-21T22:53:58.687Z,4.72
2022-11-21T22:56:26.677Z,7.10
2022-11-21T22:58:53.903Z,6.32
2022-11-21T23:01:25.619Z,6.32
2022-11-21T23:03:52.925Z,13.93
2022-11-21T23:06:23.908Z,7.55
2022-11-21T23:08:51.981Z,4.45
2022-11-21T23:11:24.500Z,4.55
2022-11-21T23:13:52.811Z,4.15
2022-11-21T23:16:20.292Z,4.45
2022-11-21T23:18:47.206Z,4.45
2022-11-21T23:21:14.784Z,5.10
2022-11-21T23:23:41.675Z,8.07
2022-11-21T23:26:11.416Z,5.40
2022-11-21T23:28:38.138Z,4.82
2022-11-21T23:31:05.026Z,5.07
2022-11-21T23:33:31.763Z,6.63
2022-11-21T23:35:58.506Z,5.22
2022-11-21T23:38:25.280Z,4.90
2022-11-21T23:40:52.067Z,5.47
2022-11-21T23:43:19.286Z,4.95
2022-11-21T23:45:54.052Z,4.43
2022-11-21T23:48:21.925Z,5.95
2022-11-21T23:50:50.923Z,4.50
2022-11-21T23:53:18.902Z,6.35
2022-11-21T23:55:45.954Z,4.25
2022-11-21T23:58:13.072Z,5.30
